Time;durP1;ratioP1;P1;durP2;ratioP2;P2;SDS_P1;SDS_P2;PMS_P1;PMS_P2;Temp;Humidity;BMP_temperature;BMP_pressure;BME280_temperature;BME280_humidity;BME280_pressure;Samples;Min_cycle;Max_cycle;Signal;HPM_P1;HPM_P2
2022/06/14 00:01:45;;;;;;;9.10;5.20;;;;;;;10.84;85.33;98617.07;106739;1274;22713;-77
2022/06/14 00:04:30;;;;;;;7.30;4.60;;;;;;;10.81;85.14;98619.59;106118;1274;137695;-77
2022/06/14 00:07:15;;;;;;;9.30;4.60;;;;;;;10.77;85.10;98623.30;106537;1274;25321;-78
2022/06/14 00:09:41;;;;;;;8.50;5.30;;;;;;;10.69;85.15;98627.23;106705;1277;22725;-76
2022/06/14 00:12:08;;;;;;;9.20;5.10;;;;;;;10.61;85.45;98629.31;106371;1277;138321;-77
2022/06/14 00:14:35;;;;;;;9.70;5.30;;;;;;;10.55;85.81;98630.11;106075;1274;24224;-77
2022/06/14 00:17:01;;;;;;;7.40;5.30;;;;;;;10.49;85.95;98632.75;106803;1274;139709;-77
2022/06/14 00:19:28;;;;;;;7.80;5.00;;;;;;;10.42;86.21;98638.02;106945;1274;22670;-77
2022/06/14 00:21:56;;;;;;;9.70;5.00;;;;;;;10.39;86.42;98640.40;106170;1276;22683;-77
2022/06/14 00:24:26;;;;;;;6.80;4.50;;;;;;;10.36;86.74;98642.67;106119;1274;137912;-76
2022/06/14 00:26:53;;;;;;;6.00;4.70;;;;;;;10.37;86.85;98643.50;106722;1274;25248;-76
2022/06/14 00:29:19;;;;;;;7.30;4.60;;;;;;;10.32;86.75;98638.56;106070;1277;137979;-76
2022/06/14 00:31:46;;;;;;;5.50;4.30;;;;;;;10.30;86.78;98636.95;106299;1274;23007;-76
2022/06/14 00:34:13;;;;;;;6.10;4.10;;;;;;;10.27;86.73;98633.69;106599;1274;139286;-76
2022/06/14 00:36:51;;;;;;;9.90;4.10;;;;;;;10.26;86.64;98633.65;106717;1273;22590;-76
2022/06/14 00:39:18;;;;;;;10.40;4.50;;;;;;;10.28;87.06;98636.52;106696;1275;23578;-77
2022/06/14 00:41:49;;;;;;;6.10;4.20;;;;;;;10.32;87.26;98635.54;106166;1274;137641;-76
2022/06/14 00:44:20;;;;;;;8.90;3.70;;;;;;;10.36;87.26;98640.05;106728;1276;22557;-76
2022/06/14 00:47:02;;;;;;;7.90;4.00;;;;;;;10.38;86.91;98642.81;106030;1276;138176;-78
2022/06/14 00:49:56;;;;;;;4.40;3.70;;;;;;;10.38;87.22;98644.34;106167;1274;22588;-75
2022/06/14 00:52:39;;;;;;;9.00;3.80;;;;;;;10.39;87.14;98643.13;106271;1277;138849;-76
2022/06/14 00:55:31;;;;;;;7.30;4.60;;;;;;;10.42;87.28;98648.84;106055;1276;25279;-76
2022/06/14 00:58:06;;;;;;;6.50;4.50;;;;;;;10.46;87.80;98651.16;106380;1277;25436;-76
2022/06/14 01:00:37;;;;;;;6.30;5.00;;;;;;;10.49;87.84;98652.20;106179;1277;24340;-79
2022/06/14 01:03:12;;;;;;;7.20;4.90;;;;;;;10.50;88.24;98651.20;106011;1277;25374;-79
2022/06/14 01:08:57;;;;;;;10.00;6.00;;;;;;;10.65;88.46;98652.54;105889;1274;22554;-79
2022/06/14 01:11:31;;;;;;;13.60;7.40;;;;;;;10.74;88.83;98651.85;106368;1274;137757;-78
2022/06/14 01:14:01;;;;;;;10.00;6.30;;;;;;;10.82;88.71;98655.61;106206;1277;22588;-77
2022/06/14 01:16:31;;;;;;;12.90;6.80;;;;;;;10.91;88.44;98657.65;106023;1274;138642;-77
2022/06/14 01:18:58;;;;;;;11.70;6.90;;;;;;;11.02;88.66;98658.84;106442;1277;22573;-77
2022/06/14 01:21:28;;;;;;;11.60;7.00;;;;;;;11.12;88.81;98656.89;105866;1274;354391;-77
2022/06/14 01:23:55;;;;;;;13.10;7.90;;;;;;;11.20;88.73;98658.63;105969;1277;137882;-77
2022/06/14 01:26:26;;;;;;;10.30;7.60;;;;;;;11.26;88.59;98660.04;106424;1276;22853;-77
2022/06/14 01:28:59;;;;;;;15.70;9.20;;;;;;;11.31;88.20;98666.84;106296;1274;138597;-77
2022/06/14 01:31:29;;;;;;;18.40;11.10;;;;;;;11.35;88.55;98658.86;106084;1274;23105;-77
2022/06/14 01:34:03;;;;;;;26.50;13.50;;;;;;;11.39;88.70;98659.69;106559;1274;22570;-77
2022/06/14 01:36:39;;;;;;;22.10;13.40;;;;;;;11.41;88.92;98663.54;106190;1274;22576;-77
2022/06/14 01:39:14;;;;;;;25.20;14.70;;;;;;;11.47;89.36;98663.36;106159;1274;23416;-77
2022/06/14 01:41:47;;;;;;;27.60;15.20;;;;;;;11.54;89.43;98669.27;107059;1274;138553;-77
2022/06/14 01:44:23;;;;;;;28.30;13.70;;;;;;;11.60;89.64;98668.45;106192;1275;23010;-77
2022/06/14 01:47:09;;;;;;;29.40;15.20;;;;;;;11.67;89.74;98667.30;106139;1274;138915;-77
2022/06/14 01:53:24;;;;;;;24.80;14.10;;;;;;;11.77;89.59;98668.02;106059;1274;138192;-77
2022/06/14 01:55:59;;;;;;;24.20;14.20;;;;;;;11.81;89.67;98669.18;106211;1274;25386;-77
2022/06/14 01:58:47;;;;;;;25.80;16.20;;;;;;;11.84;89.35;98666.17;106356;1274;139137;-77
2022/06/14 02:01:29;;;;;;;26.30;16.90;;;;;;;11.87;89.72;98670.04;106201;1274;25255;-77
2022/06/14 02:07:07;;;;;;;25.60;16.20;;;;;;;11.94;89.65;98669.86;106118;1274;23356;-77
2022/06/14 02:09:56;;;;;;;27.00;16.10;;;;;;;11.95;89.63;98666.10;106073;1274;24224;-75
2022/06/14 02:13:04;;;;;;;25.80;14.90;;;;;;;11.96;89.65;98673.16;106053;1274;138573;-76
2022/06/14 02:15:38;;;;;;;27.60;17.20;;;;;;;12.01;89.83;98674.77;106156;1274;24314;-76
2022/06/14 02:18:08;;;;;;;25.70;16.40;;;;;;;11.99;89.38;98675.23;106197;1274;137978;-78
2022/06/14 02:20:42;;;;;;;30.40;17.20;;;;;;;11.96;89.39;98685.52;105956;1277;25283;-78
2022/06/14 02:23:10;;;;;;;29.20;18.80;;;;;;;11.95;89.52;98687.49;106118;1275;138597;-77
2022/06/14 02:25:45;;;;;;;28.00;18.30;;;;;;;11.97;89.50;98691.30;106544;1274;22576;-77
2022/06/14 02:28:25;;;;;;;24.00;16.70;;;;;;;11.97;89.60;98690.83;106166;1275;138264;-77
2022/06/14 02:31:00;;;;;;;27.00;18.20;;;;;;;11.99;89.68;98695.73;106513;1274;24399;-77
2022/06/14 02:33:50;;;;;;;29.40;18.10;;;;;;;11.97;89.71;98698.83;106170;1274;22651;-77
2022/06/14 02:36:25;;;;;;;31.70;19.30;;;;;;;11.97;89.57;98700.74;106032;1274;138613;-77
2022/06/14 02:39:14;;;;;;;31.30;20.00;;;;;;;11.97;89.44;98705.11;106124;1274;24358;-77
2022/06/14 02:41:54;;;;;;;33.50;20.80;;;;;;;11.98;89.63;98702.06;106779;1276;138992;-77
2022/06/14 02:44:45;;;;;;;34.20;20.90;;;;;;;11.97;89.56;98709.27;106184;1274;29513;-77
2022/06/14 02:47:45;;;;;;;34.10;20.60;;;;;;;11.93;89.83;98715.64;106421;1274;138301;-77
2022/06/14 02:50:15;;;;;;;35.00;20.70;;;;;;;11.93;90.04;98720.45;107079;1274;22619;-77
2022/06/14 02:53:03;;;;;;;40.30;21.20;;;;;;;11.96;90.07;98719.95;106680;1274;138926;-77
2022/06/14 02:55:39;;;;;;;37.00;23.30;;;;;;;12.01;90.24;98720.30;106123;1274;22663;-77
2022/06/14 02:58:39;;;;;;;42.30;24.40;;;;;;;12.04;90.10;98722.73;106117;1274;138186;-77
2022/06/14 03:01:33;;;;;;;36.60;22.40;;;;;;;12.06;90.15;98723.05;106136;1273;23371;-77
2022/06/14 03:04:26;;;;;;;39.40;23.40;;;;;;;12.11;90.02;98726.34;105964;1274;138885;-77
2022/06/14 03:07:18;;;;;;;38.60;22.10;;;;;;;12.13;90.16;98732.50;106222;1272;22560;-77
2022/06/14 03:10:04;;;;;;;43.90;26.30;;;;;;;12.16;90.22;98733.52;106025;1274;138338;-77
2022/06/14 03:12:58;;;;;;;48.10;26.30;;;;;;;12.17;90.03;98736.33;106443;1274;25380;-77
2022/06/14 03:16:04;;;;;;;51.60;25.60;;;;;;;12.15;89.93;98734.88;106174;1274;22581;-77
2022/06/14 03:19:30;;;;;;;43.80;24.60;;;;;;;12.14;90.04;98740.11;106519;1274;22677;-77
2022/06/14 03:22:06;;;;;;;46.50;24.50;;;;;;;12.17;90.12;98748.12;106257;1275;23840;-77
2022/06/14 03:25:02;;;;;;;49.40;27.00;;;;;;;12.12;89.97;98748.87;106199;1274;25312;-77
2022/06/14 03:27:43;;;;;;;52.50;27.80;;;;;;;12.06;89.89;98752.80;107064;1274;22604;-77
2022/06/14 03:30:22;;;;;;;48.90;26.60;;;;;;;12.02;89.99;98757.43;105949;1274;138332;-77
2022/06/14 03:32:55;;;;;;;47.20;27.10;;;;;;;11.98;89.95;98759.70;106282;1274;25357;-77
2022/06/14 03:35:33;;;;;;;50.00;28.20;;;;;;;11.94;90.01;98760.48;106345;1274;138730;-77
2022/06/14 03:38:08;;;;;;;;;;;;;;;11.91;89.99;98759.66;106483;1274;22685;-77
2022/06/14 03:40:35;;;;;;;49.50;26.30;;;;;;;11.88;89.96;98759.67;106417;1274;127330;-77
2022/06/14 03:43:03;;;;;;;50.00;26.70;;;;;;;11.87;90.33;98763.15;106412;1275;22508;-77
2022/06/14 03:45:48;;;;;;;53.30;26.80;;;;;;;11.89;90.59;98766.31;106326;1274;22556;-77
2022/06/14 03:48:18;;;;;;;46.40;25.50;;;;;;;11.94;90.32;98768.77;106805;1275;138415;-77
2022/06/14 03:51:04;;;;;;;45.00;24.60;;;;;;;12.00;90.10;98769.08;106514;1274;22663;-77
2022/06/14 03:54:01;;;;;;;47.90;26.60;;;;;;;12.07;90.37;98770.11;106232;1274;138661;-76
2022/06/14 03:56:54;;;;;;;47.70;26.00;;;;;;;12.11;90.27;98768.45;106246;1274;22573;-77
2022/06/14 03:59:45;;;;;;;47.10;25.50;;;;;;;12.15;89.65;98775.89;106249;1274;138671;-77
2022/06/14 04:02:11;;;;;;;45.00;25.80;;;;;;;12.14;89.28;98780.18;106902;1277;25381;-77
2022/06/14 04:04:47;;;;;;;45.10;24.20;;;;;;;12.15;89.23;98776.00;106057;1276;138974;-77
2022/06/14 04:07:17;;;;;;;46.60;24.40;;;;;;;12.21;89.33;98781.71;106837;1274;22656;-77
2022/06/14 04:09:48;;;;;;;48.20;25.70;;;;;;;12.30;89.76;98782.36;106608;1274;22630;-77
2022/06/14 04:12:32;;;;;;;44.10;24.80;;;;;;;12.40;89.60;98783.29;106829;1274;138838;-77
2022/06/14 04:15:14;;;;;;;41.70;24.50;;;;;;;12.51;89.43;98780.40;106618;1274;22542;-77
2022/06/14 04:18:34;;;;;;;40.60;23.70;;;;;;;12.59;88.66;98780.24;107299;1273;139023;-77
2022/06/14 04:21:03;;;;;;;47.40;25.40;;;;;;;12.67;88.51;98785.23;106390;1276;22602;-77
2022/06/14 04:23:51;;;;;;;37.60;22.40;;;;;;;12.72;88.20;98785.95;106329;1277;138445;-78
2022/06/14 04:26:38;;;;;;;36.60;21.90;;;;;;;12.77;87.74;98783.80;107196;1273;30309;-77
2022/06/14 04:29:14;;;;;;;42.10;24.10;;;;;;;12.76;87.69;98786.55;106721;1273;138591;-78
2022/06/14 04:31:49;;;;;;;43.00;24.10;;;;;;;12.78;87.77;98791.06;106577;1274;22575;-77
2022/06/14 04:35:00;;;;;;;42.90;24.80;;;;;;;12.84;87.88;98790.02;106749;1274;138096;-76
2022/06/14 04:37:43;;;;;;;41.60;23.70;;;;;;;12.94;87.99;98790.36;106887;1274;30799;-77
2022/06/14 04:40:24;;;;;;;40.80;24.80;;;;;;;13.01;87.48;98791.83;106358;1274;138884;-77
2022/06/14 04:43:05;;;;;;;41.90;25.50;;;;;;;13.01;87.08;98789.53;106737;1274;22702;-78
2022/06/14 04:46:09;;;;;;;46.50;25.40;;;;;;;13.01;86.94;98792.10;106483;1274;25152;-78
2022/06/14 04:48:55;;;;;;;34.30;21.80;;;;;;;12.99;86.69;98794.53;106929;1275;22705;-78
2022/06/14 04:51:27;;;;;;;36.00;21.60;;;;;;;12.97;86.40;98792.64;106162;1274;24364;-77
2022/06/14 04:54:13;;;;;;;37.40;22.50;;;;;;;12.95;86.48;98791.41;106613;1274;138118;-77
2022/06/14 04:57:04;;;;;;;36.80;22.60;;;;;;;12.91;86.08;98790.06;106963;1273;22541;-77
2022/06/14 05:00:13;;;;;;;38.80;20.50;;;;;;;12.89;85.98;98790.79;106741;1274;137943;-77
2022/06/14 05:02:51;;;;;;;30.40;18.90;;;;;;;12.90;86.00;98796.48;107305;1274;25315;-77
2022/06/14 05:05:38;;;;;;;32.40;20.90;;;;;;;12.90;85.75;98796.65;106381;1274;138174;-77
2022/06/14 05:08:16;;;;;;;27.70;18.10;;;;;;;12.91;85.68;98802.14;106876;1274;30394;-78
2022/06/14 05:10:53;;;;;;;32.20;18.50;;;;;;;12.92;85.57;98802.15;106866;1274;138656;-78
2022/06/14 05:13:42;;;;;;;24.60;15.10;;;;;;;12.96;85.58;98801.05;106651;1273;22557;-78
2022/06/14 05:16:37;;;;;;;29.60;16.30;;;;;;;13.00;85.41;98803.96;106176;1274;138864;-77
2022/06/14 05:19:24;;;;;;;24.80;15.20;;;;;;;13.06;85.33;98799.92;106537;1274;22544;-77
2022/06/14 05:22:08;;;;;;;27.00;16.20;;;;;;;13.09;84.97;98801.23;106400;1274;22726;-78
2022/06/14 05:24:37;;;;;;;25.70;14.70;;;;;;;13.11;84.74;98798.42;106692;1274;23299;-77
2022/06/14 05:27:19;;;;;;;31.50;15.70;;;;;;;13.14;84.62;98802.98;106363;1276;25436;-77
2022/06/14 05:30:00;;;;;;;24.50;15.20;;;;;;;13.19;84.52;98808.64;106209;1275;138204;-79
2022/06/14 05:32:35;;;;;;;23.10;14.10;;;;;;;13.25;84.28;98807.73;106258;1276;22630;-75
2022/06/14 05:35:21;;;;;;;25.10;14.50;;;;;;;13.37;86.40;98810.20;106506;1274;138276;-76
2022/06/14 05:37:54;;;;;;;21.70;13.00;;;;;;;13.58;85.54;98803.23;106622;1274;25268;-79
2022/06/14 05:40:36;;;;;;;23.20;13.50;;;;;;;13.74;84.67;98801.23;106306;1274;138749;-77
2022/06/14 05:43:29;;;;;;;27.10;14.70;;;;;;;13.94;84.37;98805.09;106952;1274;23578;-78
2022/06/14 05:46:06;;;;;;;23.30;13.70;;;;;;;14.02;83.04;98803.15;106526;1273;23273;-79
2022/06/14 05:48:44;;;;;;;20.00;13.60;;;;;;;14.00;82.20;98807.02;106407;1277;24309;-78
2022/06/14 05:52:13;;;;;;;21.10;12.40;;;;;;;14.02;81.99;98809.56;106262;1274;23078;-78
2022/06/14 05:55:15;;;;;;;20.90;13.00;;;;;;;14.04;81.87;98813.19;106953;1274;22638;-78
2022/06/14 05:58:01;;;;;;;18.90;11.90;;;;;;;14.05;81.52;98808.05;106850;1274;22546;-78
2022/06/14 06:00:38;;;;;;;19.80;13.30;;;;;;;14.09;81.34;98809.13;106502;1274;22699;-79
2022/06/14 06:03:36;;;;;;;24.20;12.40;;;;;;;14.09;81.34;98806.98;106737;1274;22553;-79
2022/06/14 06:06:18;;;;;;;17.90;10.40;;;;;;;14.13;81.40;98812.19;105996;1274;138735;-78
2022/06/14 06:08:50;;;;;;;12.80;7.30;;;;;;;14.16;80.62;98810.13;106252;1274;25433;-78
2022/06/14 06:11:23;;;;;;;14.50;8.30;;;;;;;14.18;79.83;98811.63;106884;1274;138991;-79
2022/06/14 06:13:55;;;;;;;10.60;6.60;;;;;;;14.22;79.76;98814.13;106385;1276;25362;-79
2022/06/14 06:16:39;;;;;;;18.70;8.30;;;;;;;14.26;79.23;98812.13;106014;1274;138022;-75
2022/06/14 06:19:26;;;;;;;16.90;8.10;;;;;;;14.32;79.35;98813.45;106429;1275;22565;-80
2022/06/14 06:22:17;;;;;;;5.60;3.60;;;;;;;14.38;78.98;98808.73;106575;1274;25268;-80
2022/06/14 06:24:56;;;;;;;5.10;2.90;;;;;;;14.42;77.14;98814.59;107652;1273;25251;-79
2022/06/14 06:27:44;;;;;;;3.00;2.20;;;;;;;14.45;75.80;98814.38;106777;1274;22578;-81
2022/06/14 06:30:31;;;;;;;5.30;2.00;;;;;;;14.44;73.00;98818.44;106532;1274;137585;-81
2022/06/14 06:32:59;;;;;;;5.70;2.20;;;;;;;14.42;72.88;98823.73;106732;1274;25412;-82
2022/06/14 06:35:37;;;;;;;4.80;2.00;;;;;;;14.43;72.62;98825.98;106419;1274;137816;-81
2022/06/14 06:38:32;;;;;;;7.10;2.30;;;;;;;14.44;71.73;98833.11;106531;1274;24345;-81
2022/06/14 06:44:09;;;;;;;4.60;2.40;;;;;;;14.42;70.83;98831.57;106168;1275;24263;-82
2022/06/14 06:46:48;;;;;;;4.30;2.00;;;;;;;14.44;70.91;98829.61;106185;1274;137765;-81
2022/06/14 06:49:24;;;;;;;4.60;2.00;;;;;;;14.49;71.15;98831.99;106580;1274;25417;-82
2022/06/14 06:51:56;;;;;;;4.70;1.90;;;;;;;14.54;70.42;98828.70;106321;1274;25465;-81
2022/06/14 06:55:02;;;;;;;3.10;1.80;;;;;;;14.59;69.81;98832.52;106103;1276;137757;-81
2022/06/14 06:57:45;;;;;;;4.90;1.70;;;;;;;14.68;70.18;98831.36;106342;1274;22544;-80
2022/06/14 07:00:23;;;;;;;3.80;1.40;;;;;;;14.77;70.45;98831.83;106592;1277;137377;-81
2022/06/14 07:03:04;;;;;;;5.40;1.90;;;;;;;14.89;70.05;98837.21;107087;1274;25400;-80
2022/06/14 07:05:31;;;;;;;2.80;1.60;;;;;;;15.00;69.90;98840.58;106319;1274;138457;-82
2022/06/14 07:08:04;;;;;;;2.60;1.20;;;;;;;15.09;68.37;98839.20;106240;1274;25276;-82
2022/06/14 07:10:30;;;;;;;2.60;1.30;;;;;;;15.17;67.41;98843.36;106209;1276;138470;-82
2022/06/14 07:13:35;;;;;;;3.40;1.40;;;;;;;15.27;67.35;98838.76;106392;1276;23385;-82
2022/06/14 07:16:46;;;;;;;1.80;1.30;;;;;;;15.33;67.00;98837.27;106637;1274;137735;-83
2022/06/14 07:20:12;;;;;;;2.60;1.30;;;;;;;15.45;67.09;98835.01;106516;1274;24438;-83
2022/06/14 07:23:18;;;;;;;3.50;1.70;;;;;;;15.56;67.61;98832.36;106475;1273;139200;-82
2022/06/14 07:26:17;;;;;;;2.30;2.00;;;;;;;15.71;66.79;98833.24;106699;1273;22694;-81
2022/06/14 07:28:56;;;;;;;3.50;1.50;;;;;;;15.91;66.38;98835.96;106060;1277;138164;-82
2022/06/14 07:31:38;;;;;;;4.00;1.50;;;;;;;15.90;64.71;98836.17;106722;1276;30328;-81
2022/06/14 07:34:18;;;;;;;2.60;1.60;;;;;;;15.81;64.47;98836.31;106606;1274;137674;-81
2022/06/14 07:37:24;;;;;;;3.70;1.70;;;;;;;15.80;64.28;98833.17;106315;1277;22560;-82
2022/06/14 07:39:59;;;;;;;5.10;2.00;;;;;;;15.89;64.05;98837.78;107054;1274;22577;-82
2022/06/14 07:42:54;;;;;;;2.30;2.00;;;;;;;16.00;64.87;98836.86;106395;1274;25386;-83
2022/06/14 07:45:38;;;;;;;4.20;2.40;;;;;;;16.07;63.91;98842.15;106236;1277;24196;-82
2022/06/14 07:48:24;;;;;;;4.20;2.40;;;;;;;16.09;63.26;98841.88;106334;1274;137548;-82
2022/06/14 07:51:00;;;;;;;4.20;2.60;;;;;;;16.24;64.03;98845.91;106527;1274;22688;-82
2022/06/14 07:53:42;;;;;;;4.40;1.90;;;;;;;16.36;63.42;98846.76;106650;1274;137939;-82
2022/06/14 07:56:21;;;;;;;5.40;2.10;;;;;;;16.45;62.72;98845.05;106538;1274;25329;-82
2022/06/14 07:58:48;;;;;;;5.60;2.10;;;;;;;16.46;61.41;98849.13;106306;1274;137894;-82
2022/06/14 08:01:28;;;;;;;7.70;2.70;;;;;;;16.55;61.01;98844.08;106771;1275;25587;-82
2022/06/14 08:04:03;;;;;;;3.50;2.00;;;;;;;16.69;62.55;98844.84;106343;1274;22547;-82
2022/06/14 08:06:42;;;;;;;3.00;1.50;;;;;;;16.86;61.64;98845.08;107009;1274;25329;-83
2022/06/14 08:09:25;;;;;;;5.30;2.20;;;;;;;16.94;60.25;98844.63;106899;1274;26606;-82
2022/06/14 08:11:58;;;;;;;6.20;2.40;;;;;;;16.96;60.85;98844.35;106414;1274;137521;-82
2022/06/14 08:14:54;;;;;;;5.00;2.60;;;;;;;16.99;60.00;98848.85;106352;1274;25345;-82
2022/06/14 08:17:43;;;;;;;4.70;2.10;;;;;;;17.14;59.16;98848.84;106258;1274;137592;-82
2022/06/14 08:20:22;;;;;;;;;;;;;;;17.25;59.78;98848.81;106630;1274;22655;-83
2022/06/14 08:22:56;;;;;;;5.40;2.50;;;;;;;17.31;59.93;98848.30;106316;1274;123951;-84
2022/06/14 08:25:29;;;;;;;6.70;2.40;;;;;;;17.44;59.71;98839.77;106878;1274;24748;-82
2022/06/14 08:28:10;;;;;;;8.00;3.00;;;;;;;17.61;59.21;98840.38;106204;1274;22570;-82
2022/06/14 08:30:46;;;;;;;4.00;2.70;;;;;;;17.68;58.47;98844.19;106721;1274;22630;-82
2022/06/14 08:33:24;;;;;;;5.70;2.00;;;;;;;17.70;58.61;98842.52;106360;1273;22774;-82
2022/06/14 08:35:55;;;;;;;6.20;2.20;;;;;;;17.78;57.96;98838.14;106329;1275;137439;-83
2022/06/14 08:38:36;;;;;;;5.10;2.20;;;;;;;17.81;57.79;98834.11;106203;1274;23177;-83
2022/06/14 08:41:21;;;;;;;3.60;2.10;;;;;;;17.89;58.29;98828.52;106247;1274;137508;-83
2022/06/14 08:44:18;;;;;;;2.70;2.00;;;;;;;18.09;56.71;98826.54;106263;1275;25323;-84
2022/06/14 08:47:02;;;;;;;3.60;2.10;;;;;;;18.27;54.88;98828.29;106784;1274;137624;-82
2022/06/14 08:50:02;;;;;;;5.80;2.20;;;;;;;18.34;54.53;98824.60;106199;1277;22560;-83
2022/06/14 08:52:52;;;;;;;4.90;2.10;;;;;;;18.52;54.35;98820.55;106209;1274;137646;-83
2022/06/14 08:55:56;;;;;;;2.90;2.50;;;;;;;18.47;53.50;98818.98;106056;1276;22700;-82
2022/06/14 08:58:42;;;;;;;3.10;1.90;;;;;;;18.41;55.19;98815.89;106022;1276;137690;-83
2022/06/14 09:01:47;;;;;;;7.10;2.10;;;;;;;18.51;54.70;98808.59;106191;1275;23937;-83
2022/06/14 09:04:47;;;;;;;3.10;1.80;;;;;;;18.55;54.88;98801.88;106128;1274;137777;-83
2022/06/14 09:07:42;;;;;;;2.70;1.80;;;;;;;18.48;53.63;98800.45;106247;1276;25510;-82
2022/06/14 09:10:35;;;;;;;3.80;2.20;;;;;;;18.51;53.74;98799.88;106021;1275;138280;-83
2022/06/14 09:13:27;;;;;;;3.50;1.80;;;;;;;18.60;52.88;98799.52;106406;1274;25756;-83
2022/06/14 09:16:19;;;;;;;2.50;1.30;;;;;;;18.53;53.54;98796.09;106690;1274;24226;-84
2022/06/14 09:18:55;;;;;;;4.00;1.70;;;;;;;18.48;53.42;98786.27;106219;1274;22566;-82
2022/06/14 09:21:54;;;;;;;3.20;1.60;;;;;;;18.53;53.89;98793.34;106361;1274;23110;-82
2022/06/14 09:24:51;;;;;;;6.10;1.70;;;;;;;18.70;52.63;98787.45;105821;1276;137353;-84
2022/06/14 09:27:59;;;;;;;3.30;1.40;;;;;;;18.75;52.91;98789.12;106369;1275;22732;-83
2022/06/14 09:30:45;;;;;;;3.90;1.90;;;;;;;18.68;52.90;98785.04;106322;1276;24332;-80
2022/06/14 09:33:37;;;;;;;6.00;1.70;;;;;;;18.66;52.88;98789.31;106073;1276;22544;-86
2022/06/14 09:36:38;;;;;;;4.40;1.80;;;;;;;18.73;53.00;98787.30;106147;1276;137663;-86
2022/06/14 09:39:28;;;;;;;2.70;1.60;;;;;;;18.76;52.84;98788.60;105919;1276;22837;-83
2022/06/14 09:42:25;;;;;;;2.60;1.60;;;;;;;18.69;52.96;98791.71;106515;1274;137409;-82
2022/06/14 09:45:13;;;;;;;2.70;1.40;;;;;;;18.63;53.55;98793.63;106075;1274;30326;-82
2022/06/14 09:47:58;;;;;;;6.10;1.60;;;;;;;18.50;53.91;98800.16;106194;1274;137474;-81
2022/06/14 09:50:53;;;;;;;3.40;1.80;;;;;;;18.37;54.39;98801.64;106239;1274;22585;-80
2022/06/14 09:53:45;;;;;;;2.00;1.20;;;;;;;18.34;54.54;98799.41;106307;1274;137479;-81
2022/06/14 09:56:18;;;;;;;2.40;1.50;;;;;;;18.21;53.87;98799.61;106638;1275;22541;-80
2022/06/14 09:59:36;;;;;;;2.60;1.50;;;;;;;18.08;54.26;98797.84;106382;1275;137842;-81
2022/06/14 10:02:40;;;;;;;2.60;1.20;;;;;;;17.93;53.07;98797.37;106857;1274;22641;-83
2022/06/14 10:05:44;;;;;;;2.70;1.30;;;;;;;17.81;52.65;98805.13;106439;1274;137503;-82
2022/06/14 10:08:44;;;;;;;4.00;1.50;;;;;;;17.69;53.58;98806.79;106416;1274;25365;-82
2022/06/14 10:11:42;;;;;;;5.00;1.50;;;;;;;17.66;54.64;98803.27;106433;1276;137839;-82
2022/06/14 10:14:44;;;;;;;2.00;1.30;;;;;;;17.69;54.41;98806.89;106836;1274;25190;-83
2022/06/14 10:17:54;;;;;;;3.00;1.30;;;;;;;17.72;54.32;98808.20;106416;1274;137586;-83
2022/06/14 10:20:55;;;;;;;2.90;1.40;;;;;;;17.69;53.15;98803.42;105716;1280;22560;-83
2022/06/14 10:23:22;;;;;;;3.50;1.80;;;;;;;17.67;53.60;98802.94;105714;1281;137637;-83
2022/06/14 10:29:46;;;;;;;3.70;1.30;;;;;;;17.61;55.18;98804.96;105994;1281;137836;-83
2022/06/14 10:32:41;;;;;;;3.10;1.70;;;;;;;17.59;55.82;98811.30;106213;1281;22817;-83
2022/06/14 10:35:46;;;;;;;2.90;1.40;;;;;;;17.66;55.88;98810.60;105953;1281;137507;-82
2022/06/14 10:38:44;;;;;;;3.90;1.40;;;;;;;17.74;55.30;98807.20;105838;1283;25869;-83
2022/06/14 10:41:43;;;;;;;4.90;1.50;;;;;;;17.80;55.81;98804.09;105617;1283;137607;-84
2022/06/14 10:44:30;;;;;;;3.00;1.40;;;;;;;17.90;55.81;98807.43;105915;1281;22562;-83
2022/06/14 10:47:07;;;;;;;3.20;1.50;;;;;;;18.02;54.63;98803.98;106211;1280;137916;-84
2022/06/14 10:49:50;;;;;;;2.80;0.90;;;;;;;18.15;54.55;98802.08;105882;1281;25487;-83
2022/06/14 10:52:40;;;;;;;3.60;1.10;;;;;;;18.28;53.57;98798.77;105814;1283;137982;-84
2022/06/14 10:55:55;;;;;;;2.40;1.10;;;;;;;18.41;53.14;98800.83;106160;1283;26571;-83
2022/06/14 10:58:38;;;;;;;3.00;1.20;;;;;;;18.57;52.57;98801.82;105724;1278;137998;-83
2022/06/14 11:01:42;;;;;;;3.50;1.20;;;;;;;18.72;52.29;98805.70;106261;1274;22577;-83
2022/06/14 11:04:50;;;;;;;2.80;0.80;;;;;;;18.85;51.50;98802.69;106441;1274;137697;-84
2022/06/14 11:07:53;;;;;;;3.90;1.30;;;;;;;19.07;51.20;98795.66;106061;1277;30471;-84
2022/06/14 11:10:51;;;;;;;2.50;1.00;;;;;;;19.26;50.18;98798.94;106545;1274;137718;-85
2022/06/14 11:13:48;;;;;;;4.10;1.00;;;;;;;19.39;49.80;98796.89;106643;1274;22574;-85
2022/06/14 11:16:53;;;;;;;4.80;1.40;;;;;;;19.55;49.48;98796.70;106352;1274;137813;-84
2022/06/14 11:19:42;;;;;;;2.00;1.10;;;;;;;19.66;47.93;98795.95;106329;1275;24510;-84
2022/06/14 11:22:15;;;;;;;3.20;1.00;;;;;;;19.67;48.13;98793.45;106660;1273;137671;-84
2022/06/14 11:25:11;;;;;;;3.40;0.90;;;;;;;19.87;48.61;98793.48;106620;1274;25343;-84
2022/06/14 11:28:13;;;;;;;2.30;0.60;;;;;;;20.22;48.31;98797.39;106582;1274;22563;-86
2022/06/14 11:31:18;;;;;;;3.90;1.10;;;;;;;20.29;46.68;98798.84;106759;1274;22694;-85
2022/06/14 11:34:23;;;;;;;3.80;1.20;;;;;;;20.65;47.14;98794.61;106377;1276;22965;-84
2022/06/14 11:37:53;;;;;;;4.50;1.00;;;;;;;20.96;45.32;98796.23;106472;1274;22720;-85
2022/06/14 11:40:53;;;;;;;3.10;1.30;;;;;;;21.16;44.29;98790.42;106359;1274;137620;-86
2022/06/14 11:44:00;;;;;;;6.70;1.00;;;;;;;21.20;44.09;98790.77;106463;1273;24439;-85
2022/06/14 11:46:32;;;;;;;3.10;0.90;;;;;;;21.56;43.97;98783.59;106128;1273;138021;-87
2022/06/14 11:49:28;;;;;;;1.80;0.90;;;;;;;21.85;43.36;98781.98;106456;1274;24259;-82
2022/06/14 11:52:16;;;;;;;4.00;1.00;;;;;;;22.14;43.03;98784.30;106481;1274;22538;-84
2022/06/14 11:55:04;;;;;;;1.30;0.60;;;;;;;22.36;41.72;98772.38;107479;1274;23423;-85
2022/06/14 11:57:59;;;;;;;3.30;0.80;;;;;;;22.39;42.18;98772.02;106631;1274;22581;-81
2022/06/14 12:00:57;;;;;;;4.40;1.00;;;;;;;22.09;40.87;98771.20;106497;1276;23357;-88
2022/06/14 12:03:58;;;;;;;3.20;0.90;;;;;;;21.74;41.36;98777.27;106518;1275;24437;-83
2022/06/14 12:06:51;;;;;;;1.70;0.90;;;;;;;21.36;41.81;98782.95;106390;1274;22541;-86
2022/06/14 12:09:40;;;;;;;3.10;1.00;;;;;;;21.08;41.61;98779.43;106076;1276;22553;-85
2022/06/14 12:12:32;;;;;;;2.00;0.70;;;;;;;20.74;41.12;98780.33;106383;1276;137361;-87
2022/06/14 12:16:03;;;;;;;2.50;0.80;;;;;;;20.69;42.15;98778.61;106446;1272;22623;-85
2022/06/14 12:18:58;;;;;;;1.30;0.90;;;;;;;20.90;41.63;98780.32;106700;1273;30411;-86
2022/06/14 12:21:51;;;;;;;3.40;0.90;;;;;;;20.96;41.65;98775.67;106809;1274;25260;-87
2022/06/14 12:26:34;;;;;;;3.70;1.20;;;;;;;21.14;42.05;98776.39;106274;1274;137505;-84
2022/06/14 12:27:19;;;;;;;1.90;0.80;;;;;;;21.36;40.77;98771.73;106502;1273;22567;-85
2022/06/14 12:29:51;;;;;;;2.70;1.00;;;;;;;21.33;40.63;98771.02;106111;1276;139194;-85
2022/06/14 12:32:43;;;;;;;2.40;0.70;;;;;;;21.31;41.56;98775.77;106441;1277;22556;-88
2022/06/14 12:35:21;;;;;;;2.70;0.70;;;;;;;21.53;41.68;98771.69;106145;1277;137645;-83
2022/06/14 12:38:02;;;;;;;3.60;1.00;;;;;;;21.48;40.11;98772.50;106597;1275;22547;-81
2022/06/14 12:40:51;;;;;;;5.40;0.90;;;;;;;21.35;41.65;98768.33;106180;1275;139288;-84
2022/06/14 12:43:27;;;;;;;2.00;0.90;;;;;;;21.40;41.81;98766.11;106536;1274;22630;-88
2022/06/14 12:46:02;;;;;;;2.80;1.00;;;;;;;21.51;41.52;98765.92;106442;1274;22560;-86
2022/06/14 12:48:39;;;;;;;3.00;0.80;;;;;;;21.63;40.23;98768.14;106405;1275;25272;-85
2022/06/14 12:51:16;;;;;;;3.50;1.00;;;;;;;21.56;39.65;98768.25;106281;1276;25322;-85
2022/06/14 12:54:10;;;;;;;4.80;0.80;;;;;;;21.38;39.53;98773.68;106690;1274;138163;-86
2022/06/14 12:56:48;;;;;;;5.60;1.60;;;;;;;21.14;39.83;98771.90;106365;1275;24269;-88